sensor_id;sensor_type;location;lat;lon;timestamp;pressure;altitude;pressure_sealevel;temperature;humidity
20622;BME280;10470;42.670;23.354;2023-06-10T00:02:20;94397.81;;;18.78;100.00
20622;BME280;10470;42.670;23.354;2023-06-10T00:04:46;94401.97;;;18.43;100.00
20622;BME280;10470;42.670;23.354;2023-06-10T00:07:11;94386.75;;;18.25;100.00
20622;BME280;10470;42.670;23.354;2023-06-10T00:09:37;94391.72;;;18.38;100.00
20622;BME280;10470;42.670;23.354;2023-06-10T00:12:07;94395.50;;;18.35;100.00
20622;BME280;10470;42.670;23.354;2023-06-10T00:14:39;94392.72;;;18.41;100.00
20622;BME280;10470;42.670;23.354;2023-06-10T00:17:05;94393.72;;;18.38;100.00
20622;BME280;10470;42.670;23.354;2023-06-10T00:19:36;94389.53;;;18.25;100.00
20622;BME280;10470;42.670;23.354;2023-06-10T00:22:02;94387.94;;;18.41;100.00
20622;BME280;10470;42.670;23.354;2023-06-10T00:24:31;94391.41;;;18.53;100.00
20622;BME280;10470;42.670;23.354;2023-06-10T00:26:59;94397.38;;;18.63;100.00
20622;BME280;10470;42.670;23.354;2023-06-10T00:29:25;94392.31;;;18.67;100.00
20622;BME280;10470;42.670;23.354;2023-06-10T00:31:50;94400.38;;;18.65;100.00
20622;BME280;10470;42.670;23.354;2023-06-10T00:34:16;94403.19;;;18.53;100.00
20622;BME280;10470;42.670;23.354;2023-06-10T00:36:41;94406.56;;;18.29;100.00
20622;BME280;10470;42.670;23.354;2023-06-10T00:39:08;94390.03;;;18.18;100.00
20622;BME280;10470;42.670;23.354;2023-06-10T00:41:33;94394.59;;;18.10;100.00
20622;BME280;10470;42.670;23.354;2023-06-10T00:43:59;94395.13;;;17.97;100.00
20622;BME280;10470;42.670;23.354;2023-06-10T00:46:25;94387.81;;;18.17;100.00
20622;BME280;10470;42.670;23.354;2023-06-10T00:48:52;94393.28;;;18.28;100.00
20622;BME280;10470;42.670;23.354;2023-06-10T00:51:18;94396.56;;;18.26;100.00
20622;BME280;10470;42.670;23.354;2023-06-10T00:53:44;94398.84;;;18.17;100.00
20622;BME280;10470;42.670;23.354;2023-06-10T00:56:10;94394.25;;;18.30;100.00
20622;BME280;10470;42.670;23.354;2023-06-10T00:58:36;94399.09;;;18.19;100.00
20622;BME280;10470;42.670;23.354;2023-06-10T01:01:02;94404.56;;;18.30;100.00
20622;BME280;10470;42.670;23.354;2023-06-10T01:03:29;94404.78;;;18.38;100.00
20622;BME280;10470;42.670;23.354;2023-06-10T01:06:08;94403.97;;;18.48;100.00
20622;BME280;10470;42.670;23.354;2023-06-10T01:11:57;94416.19;;;18.64;100.00
20622;BME280;10470;42.670;23.354;2023-06-10T01:14:24;94416.38;;;18.72;100.00
20622;BME280;10470;42.670;23.354;2023-06-10T01:16:50;94418.72;;;18.56;100.00
20622;BME280;10470;42.670;23.354;2023-06-10T01:19:17;94422.25;;;18.51;100.00
20622;BME280;10470;42.670;23.354;2023-06-10T01:21:43;94412.72;;;18.58;100.00
20622;BME280;10470;42.670;23.354;2023-06-10T01:24:14;94414.19;;;18.59;100.00
20622;BME280;10470;42.670;23.354;2023-06-10T01:26:44;94418.44;;;18.66;100.00
20622;BME280;10470;42.670;23.354;2023-06-10T01:29:54;94412.25;;;18.48;100.00
20622;BME280;10470;42.670;23.354;2023-06-10T01:32:29;94414.50;;;18.50;100.00
20622;BME280;10470;42.670;23.354;2023-06-10T01:34:58;94412.97;;;18.54;100.00
20622;BME280;10470;42.670;23.354;2023-06-10T01:37:26;94422.03;;;18.44;100.00
20622;BME280;10470;42.670;23.354;2023-06-10T01:39:52;94413.03;;;18.38;100.00
20622;BME280;10470;42.670;23.354;2023-06-10T01:42:20;94417.91;;;18.09;100.00
20622;BME280;10470;42.670;23.354;2023-06-10T01:44:46;94406.31;;;18.27;100.00
20622;BME280;10470;42.670;23.354;2023-06-10T01:47:12;94410.78;;;18.36;100.00
20622;BME280;10470;42.670;23.354;2023-06-10T01:49:37;94411.06;;;18.32;100.00
20622;BME280;10470;42.670;23.354;2023-06-10T01:52:03;94403.75;;;18.41;100.00
20622;BME280;10470;42.670;23.354;2023-06-10T01:54:29;94401.28;;;18.37;100.00
20622;BME280;10470;42.670;23.354;2023-06-10T01:56:54;94388.44;;;18.45;100.00
20622;BME280;10470;42.670;23.354;2023-06-10T01:59:20;94396.19;;;18.52;100.00
20622;BME280;10470;42.670;23.354;2023-06-10T02:01:45;94396.44;;;18.49;100.00
20622;BME280;10470;42.670;23.354;2023-06-10T02:04:11;94389.34;;;18.59;100.00
20622;BME280;10470;42.670;23.354;2023-06-10T02:06:36;94390.66;;;18.52;100.00
20622;BME280;10470;42.670;23.354;2023-06-10T02:09:03;94384.91;;;18.50;100.00
20622;BME280;10470;42.670;23.354;2023-06-10T02:11:28;94390.13;;;18.54;100.00
20622;BME280;10470;42.670;23.354;2023-06-10T02:13:54;94387.63;;;18.56;100.00
20622;BME280;10470;42.670;23.354;2023-06-10T02:16:20;94385.84;;;18.59;100.00
20622;BME280;10470;42.670;23.354;2023-06-10T02:18:46;94388.78;;;18.72;100.00
20622;BME280;10470;42.670;23.354;2023-06-10T02:21:14;94382.28;;;18.75;100.00
20622;BME280;10470;42.670;23.354;2023-06-10T02:23:40;94382.06;;;18.62;100.00
20622;BME280;10470;42.670;23.354;2023-06-10T02:26:05;94377.03;;;18.66;100.00
20622;BME280;10470;42.670;23.354;2023-06-10T02:28:31;94377.50;;;18.70;100.00
20622;BME280;10470;42.670;23.354;2023-06-10T02:30:56;94365.25;;;18.65;100.00
20622;BME280;10470;42.670;23.354;2023-06-10T02:33:22;94359.94;;;18.67;100.00
20622;BME280;10470;42.670;23.354;2023-06-10T02:35:49;94368.22;;;18.67;100.00
20622;BME280;10470;42.670;23.354;2023-06-10T02:38:15;94355.28;;;18.51;100.00
20622;BME280;10470;42.670;23.354;2023-06-10T02:40:40;94364.53;;;18.59;100.00
20622;BME280;10470;42.670;23.354;2023-06-10T02:43:06;94358.22;;;18.64;100.00
20622;BME280;10470;42.670;23.354;2023-06-10T02:45:31;94359.16;;;18.72;100.00
20622;BME280;10470;42.670;23.354;2023-06-10T02:47:57;94350.44;;;18.68;100.00
20622;BME280;10470;42.670;23.354;2023-06-10T02:50:22;94349.25;;;18.58;100.00
20622;BME280;10470;42.670;23.354;2023-06-10T02:52:48;94355.75;;;18.61;100.00
20622;BME280;10470;42.670;23.354;2023-06-10T02:55:14;94347.72;;;18.57;100.00
20622;BME280;10470;42.670;23.354;2023-06-10T02:57:39;94336.19;;;18.59;100.00
20622;BME280;10470;42.670;23.354;2023-06-10T03:00:05;94346.28;;;18.50;100.00
20622;BME280;10470;42.670;23.354;2023-06-10T03:02:35;94343.19;;;18.65;100.00
20622;BME280;10470;42.670;23.354;2023-06-10T03:05:04;94341.66;;;18.64;100.00
20622;BME280;10470;42.670;23.354;2023-06-10T03:07:30;94347.75;;;18.51;100.00
20622;BME280;10470;42.670;23.354;2023-06-10T03:09:56;94351.22;;;18.63;100.00
20622;BME280;10470;42.670;23.354;2023-06-10T03:12:21;94348.13;;;18.72;100.00
20622;BME280;10470;42.670;23.354;2023-06-10T03:14:47;94348.88;;;18.73;100.00
20622;BME280;10470;42.670;23.354;2023-06-10T03:17:12;94349.38;;;18.77;100.00
20622;BME280;10470;42.670;23.354;2023-06-10T03:19:38;94352.16;;;18.71;100.00
20622;BME280;10470;42.670;23.354;2023-06-10T03:22:10;94354.16;;;18.76;100.00
20622;BME280;10470;42.670;23.354;2023-06-10T03:24:35;94354.59;;;18.86;100.00
20622;BME280;10470;42.670;23.354;2023-06-10T03:27:02;94355.69;;;18.66;100.00
20622;BME280;10470;42.670;23.354;2023-06-10T03:29:30;94343.72;;;18.58;100.00
20622;BME280;10470;42.670;23.354;2023-06-10T03:31:55;94376.72;;;18.81;100.00
20622;BME280;10470;42.670;23.354;2023-06-10T03:34:21;94370.00;;;18.70;100.00
20622;BME280;10470;42.670;23.354;2023-06-10T03:36:48;94381.28;;;18.67;100.00
20622;BME280;10470;42.670;23.354;2023-06-10T03:39:15;94382.31;;;18.64;100.00
20622;BME280;10470;42.670;23.354;2023-06-10T03:41:40;94383.84;;;18.59;100.00
20622;BME280;10470;42.670;23.354;2023-06-10T03:44:07;94376.28;;;18.65;100.00
20622;BME280;10470;42.670;23.354;2023-06-10T03:46:33;94382.31;;;18.64;100.00
20622;BME280;10470;42.670;23.354;2023-06-10T03:48:58;94375.81;;;18.61;100.00
20622;BME280;10470;42.670;23.354;2023-06-10T03:51:29;94373.00;;;18.67;100.00
20622;BME280;10470;42.670;23.354;2023-06-10T03:53:54;94376.50;;;18.67;100.00
20622;BME280;10470;42.670;23.354;2023-06-10T03:56:20;94373.88;;;18.50;100.00
20622;BME280;10470;42.670;23.354;2023-06-10T03:58:45;94366.31;;;18.51;100.00
20622;BME280;10470;42.670;23.354;2023-06-10T04:01:11;94368.56;;;18.58;100.00
20622;BME280;10470;42.670;23.354;2023-06-10T04:03:38;94373.81;;;18.56;100.00
20622;BME280;10470;42.670;23.354;2023-06-10T04:06:05;94373.34;;;18.52;100.00
20622;BME280;10470;42.670;23.354;2023-06-10T04:08:30;94375.63;;;18.48;100.00
20622;BME280;10470;42.670;23.354;2023-06-10T04:10:56;94382.81;;;18.68;100.00
20622;BME280;10470;42.670;23.354;2023-06-10T04:13:23;94380.50;;;18.72;100.00
20622;BME280;10470;42.670;23.354;2023-06-10T04:15:49;94384.06;;;18.67;100.00
20622;BME280;10470;42.670;23.354;2023-06-10T04:18:14;94392.56;;;18.69;100.00
20622;BME280;10470;42.670;23.354;2023-06-10T04:20:40;94384.34;;;18.63;100.00
20622;BME280;10470;42.670;23.354;2023-06-10T04:23:05;94391.59;;;18.66;100.00
20622;BME280;10470;42.670;23.354;2023-06-10T04:25:31;94400.34;;;18.76;100.00
20622;BME280;10470;42.670;23.354;2023-06-10T04:27:57;94395.56;;;18.76;100.00
20622;BME280;10470;42.670;23.354;2023-06-10T04:30:22;94397.03;;;18.83;100.00
20622;BME280;10470;42.670;23.354;2023-06-10T04:32:48;94401.91;;;18.60;100.00
20622;BME280;10470;42.670;23.354;2023-06-10T04:35:14;94395.56;;;18.18;100.00
20622;BME280;10470;42.670;23.354;2023-06-10T04:37:40;94388.94;;;18.44;100.00
20622;BME280;10470;42.670;23.354;2023-06-10T04:40:07;94395.47;;;18.41;100.00
20622;BME280;10470;42.670;23.354;2023-06-10T04:42:32;94394.19;;;18.42;100.00
20622;BME280;10470;42.670;23.354;2023-06-10T04:44:58;94394.69;;;18.46;100.00
20622;BME280;10470;42.670;23.354;2023-06-10T04:47:23;94391.91;;;18.51;100.00
20622;BME280;10470;42.670;23.354;2023-06-10T04:49:49;94394.19;;;18.47;100.00
20622;BME280;10470;42.670;23.354;2023-06-10T04:52:14;94384.16;;;18.44;100.00
20622;BME280;10470;42.670;23.354;2023-06-10T04:54:40;94399.38;;;18.62;100.00
20622;BME280;10470;42.670;23.354;2023-06-10T04:57:06;94402.63;;;18.66;100.00
20622;BME280;10470;42.670;23.354;2023-06-10T04:59:33;94395.56;;;18.76;100.00
20622;BME280;10470;42.670;23.354;2023-06-10T05:02:02;94401.31;;;18.73;100.00
20622;BME280;10470;42.670;23.354;2023-06-10T05:04:28;94390.56;;;18.75;100.00
20622;BME280;10470;42.670;23.354;2023-06-10T05:06:54;94395.38;;;18.63;100.00
20622;BME280;10470;42.670;23.354;2023-06-10T05:09:20;94392.28;;;18.78;100.00
20622;BME280;10470;42.670;23.354;2023-06-10T05:11:46;94396.75;;;18.87;100.00
20622;BME280;10470;42.670;23.354;2023-06-10T05:14:12;94402.53;;;18.83;100.00
20622;BME280;10470;42.670;23.354;2023-06-10T05:16:37;94394.47;;;18.91;100.00
20622;BME280;10470;42.670;23.354;2023-06-10T05:19:04;94405.03;;;18.87;100.00
20622;BME280;10470;42.670;23.354;2023-06-10T05:21:29;94394.41;;;19.02;100.00
20622;BME280;10470;42.670;23.354;2023-06-10T05:23:55;94399.13;;;19.07;100.00
20622;BME280;10470;42.670;23.354;2023-06-10T05:26:21;94399.44;;;18.98;100.00
20622;BME280;10470;42.670;23.354;2023-06-10T05:28:47;94400.19;;;18.98;100.00
20622;BME280;10470;42.670;23.354;2023-06-10T05:31:13;94407.19;;;19.05;100.00
20622;BME280;10470;42.670;23.354;2023-06-10T05:33:39;94401.41;;;19.03;100.00
20622;BME280;10470;42.670;23.354;2023-06-10T05:36:04;94401.66;;;19.05;100.00
20622;BME280;10470;42.670;23.354;2023-06-10T05:38:30;94395.59;;;19.12;100.00
20622;BME280;10470;42.670;23.354;2023-06-10T05:40:55;94407.19;;;19.05;100.00
20622;BME280;10470;42.670;23.354;2023-06-10T05:43:22;94398.84;;;19.11;100.00
20622;BME280;10470;42.670;23.354;2023-06-10T05:45:47;94404.09;;;19.14;100.00
20622;BME280;10470;42.670;23.354;2023-06-10T05:48:13;94401.38;;;19.09;100.00
20622;BME280;10470;42.670;23.354;2023-06-10T05:50:39;94409.16;;;19.10;100.00
20622;BME280;10470;42.670;23.354;2023-06-10T05:53:07;94413.94;;;19.40;100.00
20622;BME280;10470;42.670;23.354;2023-06-10T05:55:41;94414.50;;;19.63;100.00
20622;BME280;10470;42.670;23.354;2023-06-10T05:58:07;94405.78;;;19.53;100.00
20622;BME280;10470;42.670;23.354;2023-06-10T06:00:33;94416.16;;;20.02;100.00
20622;BME280;10470;42.670;23.354;2023-06-10T06:02:58;94417.38;;;20.06;100.00
20622;BME280;10470;42.670;23.354;2023-06-10T06:05:24;94430.88;;;19.91;100.00
20622;BME280;10470;42.670;23.354;2023-06-10T06:07:50;94435.19;;;20.11;100.00
20622;BME280;10470;42.670;23.354;2023-06-10T06:10:17;94436.41;;;20.16;100.00
20622;BME280;10470;42.670;23.354;2023-06-10T06:12:42;94434.50;;;20.29;100.00
20622;BME280;10470;42.670;23.354;2023-06-10T06:15:09;94435.38;;;20.19;100.00
20622;BME280;10470;42.670;23.354;2023-06-10T06:17:35;94433.94;;;20.31;100.00
20622;BME280;10470;42.670;23.354;2023-06-10T06:20:01;94438.78;;;20.06;100.00
20622;BME280;10470;42.670;23.354;2023-06-10T06:22:27;94430.88;;;20.16;100.00
20622;BME280;10470;42.670;23.354;2023-06-10T06:24:52;94434.25;;;20.52;100.00
20622;BME280;10470;42.670;23.354;2023-06-10T06:27:18;94436.22;;;20.57;100.00
20622;BME280;10470;42.670;23.354;2023-06-10T06:29:43;94445.16;;;20.44;100.00
20622;BME280;10470;42.670;23.354;2023-06-10T06:32:09;94450.91;;;19.97;100.00
20622;BME280;10470;42.670;23.354;2023-06-10T06:34:34;94442.16;;;19.93;100.00
20622;BME280;10470;42.670;23.354;2023-06-10T06:37:00;94446.78;;;20.34;100.00
20622;BME280;10470;42.670;23.354;2023-06-10T06:39:25;94452.81;;;20.33;100.00
20622;BME280;10470;42.670;23.354;2023-06-10T06:41:51;94444.66;;;20.21;100.00
20622;BME280;10470;42.670;23.354;2023-06-10T06:44:16;94452.78;;;20.14;100.00
20622;BME280;10470;42.670;23.354;2023-06-10T06:46:42;94458.53;;;20.40;100.00
20622;BME280;10470;42.670;23.354;2023-06-10T06:49:07;94440.25;;;20.56;100.00
20622;BME280;10470;42.670;23.354;2023-06-10T06:51:33;94443.63;;;20.68;100.00
20622;BME280;10470;42.670;23.354;2023-06-10T06:53:58;94440.13;;;20.86;100.00
20622;BME280;10470;42.670;23.354;2023-06-10T06:56:25;94444.53;;;20.76;100.00
20622;BME280;10470;42.670;23.354;2023-06-10T06:58:52;94452.75;;;21.01;100.00
20622;BME280;10470;42.670;23.354;2023-06-10T07:01:17;94446.09;;;21.09;100.00
20622;BME280;10470;42.670;23.354;2023-06-10T07:03:43;94449.06;;;21.30;100.00
20622;BME280;10470;42.670;23.354;2023-06-10T07:06:09;94450.00;;;20.82;100.00
20622;BME280;10470;42.670;23.354;2023-06-10T07:08:35;94450.34;;;20.72;100.00
20622;BME280;10470;42.670;23.354;2023-06-10T07:11:00;94448.72;;;20.83;100.00
20622;BME280;10470;42.670;23.354;2023-06-10T07:13:26;94448.84;;;20.71;100.00
20622;BME280;10470;42.670;23.354;2023-06-10T07:15:51;94456.06;;;20.99;100.00
20622;BME280;10470;42.670;23.354;2023-06-10T07:18:17;94460.31;;;21.19;100.00
20622;BME280;10470;42.670;23.354;2023-06-10T07:20:42;94441.84;;;20.46;100.00
20622;BME280;10470;42.670;23.354;2023-06-10T07:23:08;94441.66;;;21.01;100.00
20622;BME280;10470;42.670;23.354;2023-06-10T07:25:33;94435.97;;;21.63;100.00
20622;BME280;10470;42.670;23.354;2023-06-10T07:27:59;94436.97;;;21.79;100.00
20622;BME280;10470;42.670;23.354;2023-06-10T07:30:24;94438.78;;;21.76;100.00
20622;BME280;10470;42.670;23.354;2023-06-10T07:32:51;94452.22;;;21.72;100.00
20622;BME280;10470;42.670;23.354;2023-06-10T07:35:16;94453.56;;;21.66;100.00
20622;BME280;10470;42.670;23.354;2023-06-10T07:37:42;94450.03;;;21.52;100.00
20622;BME280;10470;42.670;23.354;2023-06-10T07:40:08;94450.94;;;21.73;100.00
20622;BME280;10470;42.670;23.354;2023-06-10T07:42:35;94457.88;;;22.39;100.00
20622;BME280;10470;42.670;23.354;2023-06-10T07:45:01;94456.50;;;22.32;100.00
20622;BME280;10470;42.670;23.354;2023-06-10T07:47:27;94464.69;;;21.79;100.00
20622;BME280;10470;42.670;23.354;2023-06-10T07:49:52;94463.28;;;21.59;100.00
20622;BME280;10470;42.670;23.354;2023-06-10T07:52:17;94463.31;;;21.72;100.00
20622;BME280;10470;42.670;23.354;2023-06-10T07:54:43;94463.47;;;22.07;100.00
20622;BME280;10470;42.670;23.354;2023-06-10T07:57:08;94457.97;;;22.20;100.00
20622;BME280;10470;42.670;23.354;2023-06-10T07:59:35;94464.28;;;22.34;100.00
20622;BME280;10470;42.670;23.354;2023-06-10T08:02:00;94475.88;;;22.06;100.00
20622;BME280;10470;42.670;23.354;2023-06-10T08:04:26;94472.59;;;22.20;100.00
20622;BME280;10470;42.670;23.354;2023-06-10T08:06:51;94464.59;;;22.30;100.00
20622;BME280;10470;42.670;23.354;2023-06-10T08:09:16;94463.44;;;22.39;100.00
20622;BME280;10470;42.670;23.354;2023-06-10T08:11:44;94471.28;;;22.08;100.00
20622;BME280;10470;42.670;23.354;2023-06-10T08:14:09;94480.19;;;22.46;100.00
20622;BME280;10470;42.670;23.354;2023-06-10T08:16:35;94470.69;;;22.55;100.00
20622;BME280;10470;42.670;23.354;2023-06-10T08:19:01;94467.59;;;22.45;100.00
20622;BME280;10470;42.670;23.354;2023-06-10T08:21:26;94469.72;;;22.66;100.00
20622;BME280;10470;42.670;23.354;2023-06-10T08:23:53;94472.19;;;22.56;100.00
20622;BME280;10470;42.670;23.354;2023-06-10T08:26:19;94474.09;;;22.48;100.00
20622;BME280;10470;42.670;23.354;2023-06-10T08:28:45;94465.25;;;22.50;100.00
20622;BME280;10470;42.670;23.354;2023-06-10T08:31:10;94466.72;;;22.64;100.00
20622;BME280;10470;42.670;23.354;2023-06-10T08:33:36;94460.38;;;22.90;100.00
20622;BME280;10470;42.670;23.354;2023-06-10T08:36:01;94462.28;;;23.08;100.00
20622;BME280;10470;42.670;23.354;2023-06-10T08:38:27;94464.00;;;23.11;100.00
20622;BME280;10470;42.670;23.354;2023-06-10T08:40:56;94456.84;;;23.37;100.00
20622;BME280;10470;42.670;23.354;2023-06-10T08:45:57;94452.16;;;22.98;100.00
20622;BME280;10470;42.670;23.354;2023-06-10T08:48:27;94453.13;;;23.00;100.00
20622;BME280;10470;42.670;23.354;2023-06-10T08:50:55;94450.97;;;23.41;100.00
20622;BME280;10470;42.670;23.354;2023-06-10T08:53:23;94447.84;;;23.44;100.00
20622;BME280;10470;42.670;23.354;2023-06-10T08:55:50;94442.59;;;23.20;100.00
20622;BME280;10470;42.670;23.354;2023-06-10T08:58:17;94440.34;;;23.18;100.00
20622;BME280;10470;42.670;23.354;2023-06-10T09:00:43;94433.72;;;23.63;100.00
20622;BME280;10470;42.670;23.354;2023-06-10T09:03:09;94441.13;;;23.61;100.00
20622;BME280;10470;42.670;23.354;2023-06-10T09:05:34;94433.31;;;23.17;100.00
20622;BME280;10470;42.670;23.354;2023-06-10T09:08:02;94435.84;;;23.70;100.00
20622;BME280;10470;42.670;23.354;2023-06-10T09:10:27;94435.59;;;24.03;100.00
20622;BME280;10470;42.670;23.354;2023-06-10T09:12:53;94432.91;;;24.18;100.00
20622;BME280;10470;42.670;23.354;2023-06-10T09:15:20;94428.41;;;24.15;100.00
20622;BME280;10470;42.670;23.354;2023-06-10T09:17:45;94433.00;;;24.62;100.00
20622;BME280;10470;42.670;23.354;2023-06-10T09:20:11;94432.72;;;24.45;100.00
20622;BME280;10470;42.670;23.354;2023-06-10T09:22:37;94416.66;;;24.66;100.00
20622;BME280;10470;42.670;23.354;2023-06-10T09:25:04;94424.41;;;24.96;100.00
20622;BME280;10470;42.670;23.354;2023-06-10T09:27:31;94418.66;;;25.02;100.00
20622;BME280;10470;42.670;23.354;2023-06-10T09:29:59;94429.44;;;25.05;100.00
20622;BME280;10470;42.670;23.354;2023-06-10T09:32:26;94430.59;;;25.10;100.00
20622;BME280;10470;42.670;23.354;2023-06-10T09:34:51;94419.31;;;25.23;100.00
20622;BME280;10470;42.670;23.354;2023-06-10T09:37:21;94429.81;;;24.58;100.00
20622;BME280;10470;42.670;23.354;2023-06-10T09:40:07;94429.69;;;24.42;100.00
20622;BME280;10470;42.670;23.354;2023-06-10T09:42:35;94411.44;;;25.14;100.00
20622;BME280;10470;42.670;23.354;2023-06-10T09:45:02;94417.44;;;25.18;100.00
20622;BME280;10470;42.670;23.354;2023-06-10T09:47:28;94407.53;;;25.10;100.00
20622;BME280;10470;42.670;23.354;2023-06-10T09:49:54;94412.94;;;25.15;100.00
20622;BME280;10470;42.670;23.354;2023-06-10T09:52:23;94409.19;;;25.05;100.00
20622;BME280;10470;42.670;23.354;2023-06-10T09:54:54;94406.03;;;25.08;100.00
20622;BME280;10470;42.670;23.354;2023-06-10T09:57:21;94412.38;;;25.09;100.00
20622;BME280;10470;42.670;23.354;2023-06-10T09:59:46;94396.13;;;24.48;100.00
20622;BME280;10470;42.670;23.354;2023-06-10T10:02:18;94402.03;;;24.73;100.00
20622;BME280;10470;42.670;23.354;2023-06-10T10:04:44;94400.38;;;25.30;100.00
20622;BME280;10470;42.670;23.354;2023-06-10T10:07:10;94396.44;;;25.25;100.00
20622;BME280;10470;42.670;23.354;2023-06-10T10:09:37;94386.34;;;25.06;100.00
20622;BME280;10470;42.670;23.354;2023-06-10T10:14:34;94394.09;;;25.98;100.00
20622;BME280;10470;42.670;23.354;2023-06-10T10:17:02;94395.56;;;25.99;100.00
20622;BME280;10470;42.670;23.354;2023-06-10T10:19:31;94384.38;;;25.99;100.00
20622;BME280;10470;42.670;23.354;2023-06-10T10:22:07;94385.16;;;26.00;100.00
20622;BME280;10470;42.670;23.354;2023-06-10T10:24:39;94387.94;;;26.00;100.00
20622;BME280;10470;42.670;23.354;2023-06-10T10:27:15;94392.75;;;25.99;100.00
20622;BME280;10470;42.670;23.354;2023-06-10T10:29:46;94389.75;;;25.36;100.00
20622;BME280;10470;42.670;23.354;2023-06-10T10:32:13;94392.22;;;26.01;100.00
20622;BME280;10470;42.670;23.354;2023-06-10T10:34:50;94380.66;;;25.97;100.00
20622;BME280;10470;42.670;23.354;2023-06-10T10:37:20;94384.75;;;26.19;100.00
20622;BME280;10470;42.670;23.354;2023-06-10T10:39:45;94389.16;;;26.45;100.00
20622;BME280;10470;42.670;23.354;2023-06-10T10:42:12;94376.88;;;26.40;99.06
20622;BME280;10470;42.670;23.354;2023-06-10T10:44:38;94372.31;;;25.89;100.00
20622;BME280;10470;42.670;23.354;2023-06-10T10:47:08;94377.03;;;26.50;100.00
20622;BME280;10470;42.670;23.354;2023-06-10T10:49:35;94373.06;;;26.68;100.00
20622;BME280;10470;42.670;23.354;2023-06-10T10:52:02;94364.81;;;26.07;100.00
20622;BME280;10470;42.670;23.354;2023-06-10T10:54:35;94368.59;;;26.73;96.03
20622;BME280;10470;42.670;23.354;2023-06-10T10:57:21;94364.44;;;26.26;100.00
20622;BME280;10470;42.670;23.354;2023-06-10T11:05:04;94367.94;;;26.90;95.43
20622;BME280;10470;42.670;23.354;2023-06-10T11:07:34;94362.69;;;26.94;94.92
20622;BME280;10470;42.670;23.354;2023-06-10T11:15:13;94346.47;;;26.60;95.28
20622;BME280;10470;42.670;23.354;2023-06-10T11:23:07;94341.38;;;27.39;91.57
20622;BME280;10470;42.670;23.354;2023-06-10T11:25:39;94343.94;;;27.95;82.55
20622;BME280;10470;42.670;23.354;2023-06-10T11:28:27;94343.38;;;28.31;82.05
20622;BME280;10470;42.670;23.354;2023-06-10T11:30:57;94335.84;;;28.16;82.23
20622;BME280;10470;42.670;23.354;2023-06-10T11:33:24;94322.63;;;28.79;79.07
20622;BME280;10470;42.670;23.354;2023-06-10T11:35:50;94322.97;;;28.83;81.63
20622;BME280;10470;42.670;23.354;2023-06-10T11:38:15;94320.69;;;28.19;83.49
20622;BME280;10470;42.670;23.354;2023-06-10T11:40:49;94321.16;;;27.91;86.45
20622;BME280;10470;42.670;23.354;2023-06-10T11:43:18;94309.84;;;27.06;89.34
20622;BME280;10470;42.670;23.354;2023-06-10T11:45:44;94309.97;;;26.90;93.61
20622;BME280;10470;42.670;23.354;2023-06-10T11:48:10;94311.41;;;27.32;97.30
20622;BME280;10470;42.670;23.354;2023-06-10T11:50:36;94311.81;;;27.71;95.36
20622;BME280;10470;42.670;23.354;2023-06-10T11:53:02;94310.38;;;27.19;94.93
20622;BME280;10470;42.670;23.354;2023-06-10T11:55:48;94312.47;;;27.61;92.57
20622;BME280;10470;42.670;23.354;2023-06-10T11:58:14;94321.69;;;27.97;86.79
20622;BME280;10470;42.670;23.354;2023-06-10T12:00:51;94318.88;;;28.93;79.07
20622;BME280;10470;42.670;23.354;2023-06-10T12:03:19;94307.31;;;28.80;76.28
20622;BME280;10470;42.670;23.354;2023-06-10T12:05:59;94321.44;;;30.48;71.04
20622;BME280;10470;42.670;23.354;2023-06-10T12:08:25;94308.50;;;29.87;68.58
20622;BME280;10470;42.670;23.354;2023-06-10T12:10:51;94312.97;;;29.16;68.38
20622;BME280;10470;42.670;23.354;2023-06-10T12:13:17;94318.13;;;28.66;69.16
20622;BME280;10470;42.670;23.354;2023-06-10T12:15:47;94312.28;;;28.19;66.93
20622;BME280;10470;42.670;23.354;2023-06-10T12:18:21;94305.69;;;28.59;67.98
20622;BME280;10470;42.670;23.354;2023-06-10T12:20:47;94306.44;;;28.07;71.50
20622;BME280;10470;42.670;23.354;2023-06-10T12:23:14;94302.47;;;28.63;66.39
20622;BME280;10470;42.670;23.354;2023-06-10T12:25:52;94296.47;;;28.14;65.13
20622;BME280;10470;42.670;23.354;2023-06-10T12:28:27;94304.38;;;28.25;61.64
20622;BME280;10470;42.670;23.354;2023-06-10T12:31:06;94302.88;;;28.24;60.32
20622;BME280;10470;42.670;23.354;2023-06-10T12:33:33;94296.88;;;27.93;66.39
20622;BME280;10470;42.670;23.354;2023-06-10T12:35:58;94295.09;;;27.63;67.15
20622;BME280;10470;42.670;23.354;2023-06-10T12:38:26;94291.31;;;27.68;67.72
20622;BME280;10470;42.670;23.354;2023-06-10T12:41:01;94272.91;;;27.82;69.68
20622;BME280;10470;42.670;23.354;2023-06-10T12:43:26;94281.91;;;27.73;67.44
20622;BME280;10470;42.670;23.354;2023-06-10T12:45:52;94271.66;;;27.93;67.18
20622;BME280;10470;42.670;23.354;2023-06-10T12:48:23;94276.47;;;27.75;65.28
20622;BME280;10470;42.670;23.354;2023-06-10T12:50:54;94277.94;;;27.84;66.38
20622;BME280;10470;42.670;23.354;2023-06-10T12:53:20;94280.56;;;28.17;64.81
20622;BME280;10470;42.670;23.354;2023-06-10T12:55:47;94277.88;;;27.66;66.29
20622;BME280;10470;42.670;23.354;2023-06-10T12:58:13;94281.06;;;28.05;65.47
20622;BME280;10470;42.670;23.354;2023-06-10T13:00:39;94281.41;;;27.92;66.46
20622;BME280;10470;42.670;23.354;2023-06-10T13:03:05;94282.56;;;26.89;64.09
20622;BME280;10470;42.670;23.354;2023-06-10T13:05:34;94279.44;;;27.10;66.98